createdAt,value
2018-08-18T00:00:26.964Z,2.10
2018-08-18T00:05:28.954Z,2.20
2018-08-18T00:13:02.682Z,2.33
2018-08-18T00:15:34.214Z,1.90
2018-08-18T00:18:05.694Z,2.17
2018-08-18T00:20:37.216Z,2.03
2018-08-18T00:23:08.603Z,2.10
2018-08-18T00:25:39.885Z,2.03
2018-08-18T00:28:23.341Z,2.00
2018-08-18T00:30:55.311Z,2.20
2018-08-18T00:33:27.253Z,2.13
2018-08-18T00:35:58.790Z,1.90
2018-08-18T00:38:33.384Z,1.80
2018-08-18T00:41:04.839Z,2.00
2018-08-18T00:43:36.624Z,1.80
2018-08-18T00:46:07.892Z,1.80
2018-08-18T00:48:39.401Z,2.20
2018-08-18T00:51:10.793Z,2.13
2018-08-18T00:53:42.021Z,2.17
2018-08-18T00:56:13.645Z,1.90
2018-08-18T00:58:55.254Z,1.90
2018-08-18T01:01:26.652Z,1.97
2018-08-18T01:03:59.203Z,2.03
2018-08-18T01:06:38.261Z,1.77
2018-08-18T01:09:13.903Z,1.97
2018-08-18T01:14:22.012Z,1.87
2018-08-18T01:16:53.811Z,2.03
2018-08-18T01:19:25.308Z,1.60
2018-08-18T01:21:59.440Z,2.10
2018-08-18T01:24:30.765Z,2.80
2018-08-18T01:27:04.723Z,1.70
2018-08-18T01:29:36.195Z,1.90
2018-08-18T01:32:07.688Z,1.83
2018-08-18T01:34:39.210Z,1.87
2018-08-18T01:37:15.622Z,1.60
2018-08-18T01:39:46.733Z,1.63
2018-08-18T01:42:18.276Z,1.80
2018-08-18T01:44:49.854Z,1.73
2018-08-18T01:47:21.433Z,1.90
2018-08-18T01:49:52.828Z,1.87
2018-08-18T01:52:25.680Z,2.07
2018-08-18T01:54:57.211Z,2.30
2018-08-18T01:57:28.665Z,1.70
2018-08-18T02:00:00.385Z,1.90
2018-08-18T02:02:31.986Z,1.93
2018-08-18T02:05:17.381Z,1.87
2018-08-18T02:07:50.372Z,1.80
2018-08-18T02:10:21.742Z,1.90
2018-08-18T02:13:05.865Z,2.10
2018-08-18T02:15:37.382Z,1.93
2018-08-18T02:18:09.200Z,2.03
2018-08-18T02:20:40.685Z,1.77
2018-08-18T02:23:12.205Z,1.80
2018-08-18T02:25:43.815Z,1.80
2018-08-18T02:28:29.681Z,1.60
2018-08-18T02:31:01.208Z,1.67
2018-08-18T02:33:33.421Z,2.07
2018-08-18T02:36:04.870Z,1.80
2018-08-18T02:38:36.760Z,1.63
2018-08-18T02:41:07.696Z,1.67
2018-08-18T02:43:39.336Z,1.63
2018-08-18T02:46:39.909Z,1.60
2018-08-18T02:49:11.384Z,1.90
2018-08-18T02:51:42.778Z,1.70
2018-08-18T02:54:14.206Z,1.87
2018-08-18T02:56:45.638Z,2.00
2018-08-18T02:59:17.405Z,1.73
2018-08-18T03:01:48.885Z,1.87
2018-08-18T03:04:20.442Z,2.43
2018-08-18T03:06:51.736Z,2.00
2018-08-18T03:09:23.196Z,1.90
2018-08-18T03:11:54.673Z,1.80
2018-08-18T03:14:26.221Z,1.93
2018-08-18T03:16:57.753Z,1.60
2018-08-18T03:19:29.356Z,1.90
2018-08-18T03:22:00.786Z,1.70
2018-08-18T03:24:32.220Z,1.90
2018-08-18T03:27:03.807Z,1.80
2018-08-18T03:29:41.413Z,1.60
2018-08-18T03:32:13.405Z,1.80
2018-08-18T03:39:33.791Z,1.60
2018-08-18T03:42:05.687Z,1.80
2018-08-18T03:44:57.976Z,1.90
2018-08-18T03:49:59.638Z,2.00
2018-08-18T03:52:30.791Z,1.70
2018-08-18T03:55:02.295Z,1.93
2018-08-18T03:57:48.637Z,1.80
2018-08-18T04:00:20.203Z,1.90
2018-08-18T04:02:51.705Z,1.47
2018-08-18T04:05:23.310Z,1.80
2018-08-18T04:07:54.782Z,1.80
2018-08-18T04:10:26.404Z,1.80
2018-08-18T04:12:58.997Z,1.97
2018-08-18T04:15:30.208Z,2.13
2018-08-18T04:18:05.308Z,1.97
2018-08-18T04:20:36.595Z,1.60
2018-08-18T04:23:07.726Z,1.70
2018-08-18T04:25:38.850Z,1.77
2018-08-18T04:28:09.832Z,1.50
2018-08-18T04:30:40.861Z,1.80
2018-08-18T04:33:12.634Z,1.67
2018-08-18T04:35:48.323Z,1.93
2018-08-18T04:38:19.627Z,1.83
2018-08-18T04:40:50.704Z,1.80
2018-08-18T04:43:21.796Z,2.87
2018-08-18T04:45:52.828Z,2.00
2018-08-18T04:48:31.964Z,1.90
2018-08-18T04:53:33.687Z,1.77
2018-08-18T04:56:04.817Z,2.53
2018-08-18T04:58:36.196Z,2.33
2018-08-18T05:01:07.705Z,1.80
2018-08-18T05:03:58.649Z,2.40
2018-08-18T05:06:31.609Z,2.70
2018-08-18T05:09:04.732Z,1.90
2018-08-18T05:11:36.287Z,1.90
2018-08-18T05:14:07.958Z,1.80
2018-08-18T05:19:10.066Z,2.13
2018-08-18T05:21:42.395Z,2.00
2018-08-18T05:24:28.207Z,1.87
2018-08-18T05:27:01.216Z,1.97
2018-08-18T05:29:32.783Z,3.03
2018-08-18T05:32:04.438Z,2.03
2018-08-18T05:34:35.738Z,2.30
2018-08-18T05:37:07.382Z,2.00
2018-08-18T05:39:38.901Z,2.20
2018-08-18T05:44:41.053Z,2.23
2018-08-18T05:49:43.424Z,2.20
2018-08-18T05:52:14.972Z,2.03
2018-08-18T05:54:46.613Z,1.90
2018-08-18T05:57:18.227Z,2.53
2018-08-18T05:59:49.791Z,2.10
2018-08-18T06:02:21.384Z,2.47
2018-08-18T06:04:52.786Z,2.03
2018-08-18T06:07:24.437Z,1.90
2018-08-18T06:09:55.980Z,2.17
2018-08-18T06:12:27.645Z,2.10
2018-08-18T06:14:59.198Z,1.90
2018-08-18T06:17:32.760Z,2.30
2018-08-18T06:20:04.402Z,2.30
2018-08-18T06:22:36.308Z,2.00
2018-08-18T06:25:08.215Z,1.97
2018-08-18T06:27:39.779Z,1.97
2018-08-18T06:30:11.416Z,2.13
2018-08-18T06:32:42.760Z,2.20
2018-08-18T06:35:14.311Z,2.10
2018-08-18T06:37:50.413Z,2.00
2018-08-18T06:40:21.995Z,2.80
2018-08-18T06:42:53.632Z,2.93
2018-08-18T06:45:25.209Z,2.30
2018-08-18T06:48:38.200Z,2.37
2018-08-18T06:51:10.259Z,2.70
2018-08-18T06:53:43.829Z,2.30
2018-08-18T06:56:15.414Z,2.13
2018-08-18T06:58:46.777Z,2.30
2018-08-18T07:01:18.328Z,2.40
2018-08-18T07:03:49.783Z,2.20
2018-08-18T07:06:21.540Z,2.00
2018-08-18T07:08:54.310Z,2.10
2018-08-18T07:11:25.809Z,2.27
2018-08-18T07:13:57.439Z,2.80
2018-08-18T07:16:28.872Z,2.57
2018-08-18T07:19:00.428Z,2.10
2018-08-18T07:21:31.776Z,2.40
2018-08-18T07:24:03.276Z,2.73
2018-08-18T07:26:34.838Z,2.50
2018-08-18T07:29:06.509Z,2.10
2018-08-18T07:31:37.732Z,1.90
2018-08-18T07:34:09.444Z,2.87
2018-08-18T07:36:40.905Z,2.73
2018-08-18T07:41:43.225Z,2.23
2018-08-18T07:44:14.599Z,2.87
2018-08-18T07:46:45.728Z,2.60
2018-08-18T07:49:16.834Z,2.70
2018-08-18T07:51:47.828Z,3.00
2018-08-18T07:54:18.623Z,2.97
2018-08-18T07:56:49.500Z,2.50
2018-08-18T07:59:20.607Z,3.40
2018-08-18T08:01:51.732Z,3.30
2018-08-18T08:04:22.839Z,3.37
2018-08-18T08:06:54.836Z,4.03
2018-08-18T08:09:25.641Z,2.73
2018-08-18T08:11:56.704Z,3.23
2018-08-18T08:14:28.444Z,2.70
2018-08-18T08:16:59.825Z,3.07
2018-08-18T08:19:31.156Z,2.20
2018-08-18T08:22:02.867Z,2.07
2018-08-18T08:24:34.582Z,2.10
2018-08-18T08:27:06.184Z,2.83
2018-08-18T08:29:39.657Z,2.27
2018-08-18T08:32:11.732Z,3.20
2018-08-18T08:34:46.644Z,3.07
2018-08-18T08:37:18.454Z,2.97
2018-08-18T08:39:49.809Z,2.77
2018-08-18T08:42:21.385Z,2.80
2018-08-18T08:44:52.912Z,2.90
2018-08-18T08:49:55.203Z,2.70
2018-08-18T08:52:26.668Z,2.10
2018-08-18T08:54:58.187Z,2.73
2018-08-18T08:57:29.762Z,2.43
2018-08-18T09:00:01.418Z,2.53
2018-08-18T09:02:32.790Z,2.40
2018-08-18T09:05:04.359Z,2.53
2018-08-18T09:07:36.703Z,2.80
2018-08-18T09:10:10.381Z,3.90
2018-08-18T09:12:41.789Z,4.37
2018-08-18T09:15:15.323Z,4.07
2018-08-18T09:17:46.853Z,2.93
2018-08-18T09:22:57.049Z,3.93
2018-08-18T09:25:31.032Z,3.73
2018-08-18T09:28:03.724Z,3.40
2018-08-18T09:30:35.421Z,3.87
2018-08-18T09:33:07.868Z,3.57
2018-08-18T09:36:00.703Z,4.95
2018-08-18T09:38:32.309Z,3.07
2018-08-18T09:41:03.829Z,2.40
2018-08-18T09:43:35.458Z,4.00
2018-08-18T09:46:07.201Z,4.03
2018-08-18T09:48:38.774Z,4.27
2018-08-18T09:51:09.820Z,2.93
2018-08-18T09:53:41.218Z,2.30
2018-08-18T09:56:12.808Z,3.17
2018-08-18T09:58:44.352Z,2.27
2018-08-18T10:01:15.833Z,3.77
2018-08-18T10:03:47.305Z,2.60
2018-08-18T10:06:18.910Z,3.30
2018-08-18T10:11:20.912Z,2.53
2018-08-18T10:16:23.196Z,2.50
2018-08-18T10:18:54.706Z,2.67
2018-08-18T10:21:26.270Z,3.13
2018-08-18T10:23:57.860Z,2.63
2018-08-18T10:26:29.646Z,2.95
2018-08-18T10:29:18.726Z,2.90
2018-08-18T10:31:53.310Z,3.07
2018-08-18T10:34:26.205Z,2.33
2018-08-18T10:37:05.218Z,2.60
2018-08-18T10:39:38.321Z,2.37
2018-08-18T10:42:15.279Z,2.60
2018-08-18T10:44:53.375Z,2.70
2018-08-18T10:47:25.669Z,2.00
2018-08-18T10:50:21.194Z,4.03
2018-08-18T10:52:59.853Z,2.13
2018-08-18T10:55:32.749Z,2.97
2018-08-18T10:58:07.335Z,2.57
2018-08-18T11:00:38.563Z,2.50
2018-08-18T11:03:10.220Z,2.63
2018-08-18T11:05:41.722Z,2.60
2018-08-18T11:08:13.355Z,2.80
2018-08-18T11:10:45.211Z,3.63
2018-08-18T11:13:16.696Z,2.40
2018-08-18T11:15:48.197Z,2.30
2018-08-18T11:18:19.742Z,2.07
2018-08-18T11:20:51.327Z,2.40
2018-08-18T11:23:22.841Z,2.27
2018-08-18T11:25:55.375Z,2.20
2018-08-18T11:28:27.545Z,2.40
2018-08-18T11:30:58.965Z,2.20
2018-08-18T11:36:13.742Z,2.40
2018-08-18T11:38:45.383Z,3.40
2018-08-18T11:41:16.786Z,2.90
2018-08-18T11:43:51.381Z,5.23
2018-08-18T11:46:22.905Z,4.50
2018-08-18T11:51:30.203Z,4.47
2018-08-18T11:54:03.429Z,4.90
2018-08-18T11:56:40.808Z,5.57
2018-08-18T11:59:17.632Z,4.70
2018-08-18T12:01:51.904Z,3.27
2018-08-18T12:06:58.750Z,3.33
2018-08-18T12:09:30.596Z,3.57
2018-08-18T12:12:02.198Z,4.33
2018-08-18T12:14:34.645Z,3.90
2018-08-18T12:17:07.566Z,4.73
2018-08-18T12:19:39.234Z,4.07
2018-08-18T12:22:10.662Z,5.13
2018-08-18T12:24:47.199Z,3.60
2018-08-18T12:27:18.726Z,2.97
2018-08-18T12:29:50.354Z,3.73
2018-08-18T12:32:25.724Z,4.03
2018-08-18T12:34:59.208Z,4.63
2018-08-18T12:37:30.808Z,4.07
2018-08-18T12:40:02.406Z,3.93
2018-08-18T12:42:34.220Z,4.80
2018-08-18T12:45:05.916Z,3.87
2018-08-18T12:50:24.630Z,5.67
2018-08-18T12:52:55.788Z,5.33
2018-08-18T12:55:26.806Z,3.40
2018-08-18T12:57:57.848Z,3.70
2018-08-18T13:00:28.787Z,3.13
2018-08-18T13:03:00.346Z,3.97
2018-08-18T13:05:31.758Z,3.90
2018-08-18T13:08:03.303Z,3.97
2018-08-18T13:10:34.713Z,4.60
2018-08-18T13:13:06.069Z,4.50
2018-08-18T13:15:37.686Z,3.30
2018-08-18T13:18:09.204Z,3.80
2018-08-18T13:20:40.767Z,4.10
2018-08-18T13:23:11.865Z,3.10
2018-08-18T13:25:43.568Z,3.00
2018-08-18T13:28:14.868Z,3.50
2018-08-18T13:30:46.549Z,3.73
2018-08-18T13:33:17.986Z,3.70
2018-08-18T13:38:31.663Z,2.90
2018-08-18T13:41:03.203Z,4.27
2018-08-18T13:43:49.421Z,2.97
2018-08-18T13:46:31.499Z,2.80
2018-08-18T13:49:03.812Z,4.97
2018-08-18T13:51:35.753Z,2.77
2018-08-18T13:54:07.293Z,3.73
2018-08-18T13:56:38.541Z,2.57
2018-08-18T13:59:09.895Z,4.57
2018-08-18T14:01:42.839Z,2.90
2018-08-18T14:04:20.904Z,2.97
2018-08-18T14:06:56.209Z,3.70
2018-08-18T14:09:27.397Z,2.50
2018-08-18T14:12:02.834Z,2.90
2018-08-18T14:14:34.472Z,2.67
2018-08-18T14:17:05.663Z,3.43
2018-08-18T14:19:36.723Z,2.80
2018-08-18T14:22:09.675Z,2.90
2018-08-18T14:24:41.883Z,4.47
2018-08-18T14:27:18.206Z,2.60
2018-08-18T14:29:49.358Z,2.90
2018-08-18T14:32:29.600Z,2.60
2018-08-18T14:35:07.814Z,3.37
2018-08-18T14:37:42.392Z,3.13
2018-08-18T14:40:19.632Z,3.13
2018-08-18T14:42:51.610Z,2.50
2018-08-18T14:45:23.992Z,2.73
2018-08-18T14:47:55.524Z,3.17
2018-08-18T14:50:30.724Z,2.77
2018-08-18T14:53:05.729Z,3.33
2018-08-18T14:55:37.242Z,3.50
2018-08-18T14:58:08.736Z,3.47
2018-08-18T15:00:40.274Z,2.97
2018-08-18T15:03:11.842Z,3.57
2018-08-18T15:05:43.434Z,3.03
2018-08-18T15:08:14.824Z,2.47
2018-08-18T15:10:47.204Z,3.60
2018-08-18T15:13:18.967Z,3.33
2018-08-18T15:18:20.852Z,3.77
2018-08-18T15:20:52.397Z,3.67
2018-08-18T15:23:23.765Z,2.60
2018-08-18T15:25:55.405Z,3.10
2018-08-18T15:28:28.749Z,2.87
2018-08-18T15:31:00.423Z,2.87
2018-08-18T15:33:31.878Z,4.00
2018-08-18T15:36:03.374Z,3.40
2018-08-18T15:38:46.729Z,2.97
2018-08-18T15:41:18.237Z,3.40
2018-08-18T15:43:49.786Z,4.17
2018-08-18T15:46:22.217Z,2.53
2018-08-18T15:48:53.789Z,2.67
2018-08-18T15:51:25.201Z,2.90
2018-08-18T15:53:57.716Z,3.10
2018-08-18T15:56:30.652Z,3.30
2018-08-18T15:59:02.649Z,2.40
2018-08-18T16:01:35.312Z,4.00
2018-08-18T16:04:06.805Z,3.67
2018-08-18T16:06:38.417Z,2.80
2018-08-18T16:09:10.923Z,2.70
2018-08-18T16:14:13.216Z,4.93
2018-08-18T16:17:00.222Z,3.43
2018-08-18T16:19:36.337Z,2.90
2018-08-18T16:22:08.996Z,3.90
2018-08-18T16:24:46.889Z,3.60
2018-08-18T16:27:18.312Z,4.10
2018-08-18T16:29:49.719Z,3.63
2018-08-18T16:32:27.863Z,3.27
2018-08-18T16:35:04.497Z,3.70
2018-08-18T16:37:38.466Z,2.93
2018-08-18T16:40:09.765Z,4.50
2018-08-18T16:42:40.878Z,3.57
2018-08-18T16:45:11.768Z,3.67
2018-08-18T16:47:52.237Z,3.40
2018-08-18T16:50:23.734Z,3.60
2018-08-18T16:52:55.322Z,4.13
2018-08-18T16:55:26.762Z,3.50
2018-08-18T16:57:58.311Z,3.67
2018-08-18T17:00:29.779Z,3.70
2018-08-18T17:03:01.032Z,7.83
2018-08-18T17:05:32.520Z,4.40
2018-08-18T17:08:03.833Z,3.77
2018-08-18T17:10:35.346Z,3.83
2018-08-18T17:13:06.845Z,3.87
2018-08-18T17:15:38.391Z,4.50
2018-08-18T17:18:09.824Z,4.20
2018-08-18T17:20:44.814Z,5.47
2018-08-18T17:23:16.300Z,4.47
2018-08-18T17:25:47.775Z,4.03
2018-08-18T17:28:19.201Z,3.90
2018-08-18T17:30:53.725Z,3.83
2018-08-18T17:33:26.262Z,3.67
2018-08-18T17:35:57.512Z,3.97
2018-08-18T17:38:28.850Z,3.80
2018-08-18T17:41:00.226Z,3.70
2018-08-18T17:43:31.725Z,4.37
2018-08-18T17:46:07.418Z,3.83
2018-08-18T17:48:44.214Z,4.00
2018-08-18T17:51:15.655Z,4.00
2018-08-18T17:53:52.312Z,4.07
2018-08-18T17:56:23.733Z,3.87
2018-08-18T17:58:55.397Z,4.13
2018-08-18T18:01:26.783Z,4.03
2018-08-18T18:03:57.869Z,4.07
2018-08-18T18:08:59.995Z,4.30
2018-08-18T18:11:31.679Z,4.57
2018-08-18T18:14:03.229Z,4.17
2018-08-18T18:16:34.748Z,4.57
2018-08-18T18:19:05.785Z,3.90
2018-08-18T18:21:37.402Z,4.43
2018-08-18T18:24:08.712Z,4.20
2018-08-18T18:26:41.758Z,3.87
2018-08-18T18:29:17.009Z,4.17
2018-08-18T18:31:48.507Z,6.23
2018-08-18T18:34:19.877Z,4.53
2018-08-18T18:36:51.423Z,4.27
2018-08-18T18:39:22.837Z,5.40
2018-08-18T18:41:54.362Z,4.70
2018-08-18T18:44:25.722Z,5.03
2018-08-18T18:46:57.207Z,5.43
2018-08-18T18:49:33.610Z,4.87
2018-08-18T18:52:05.224Z,4.80
2018-08-18T18:54:36.716Z,3.90
2018-08-18T18:57:09.640Z,3.83
2018-08-18T18:59:46.186Z,4.40
2018-08-18T19:02:17.694Z,6.07
2018-08-18T19:04:49.219Z,4.30
2018-08-18T19:07:20.671Z,4.13
2018-08-18T19:09:55.856Z,4.40
2018-08-18T19:12:27.423Z,4.33
2018-08-18T19:14:58.902Z,4.00
2018-08-18T19:17:30.712Z,3.90
2018-08-18T19:20:26.521Z,4.10
2018-08-18T19:23:07.194Z,3.80
2018-08-18T19:25:39.749Z,4.03
2018-08-18T19:28:18.670Z,4.00
2018-08-18T19:30:50.216Z,3.90
2018-08-18T19:33:21.807Z,3.77
2018-08-18T19:35:53.772Z,4.27
2018-08-18T19:38:25.230Z,4.40
2018-08-18T19:40:57.746Z,4.50
2018-08-18T19:43:29.657Z,4.40
2018-08-18T19:46:01.281Z,4.83
2018-08-18T19:48:32.982Z,6.30
2018-08-18T19:51:04.854Z,6.43
2018-08-18T19:53:36.713Z,7.17
2018-08-18T19:56:11.563Z,6.43
2018-08-18T19:58:42.637Z,6.60
2018-08-18T20:01:13.703Z,9.23
2018-08-18T20:03:44.717Z,7.57
2018-08-18T20:06:21.887Z,7.73
2018-08-18T20:08:52.819Z,6.80
2018-08-18T20:11:23.881Z,7.50
2018-08-18T20:13:54.815Z,9.30
2018-08-18T20:16:26.571Z,8.50
2018-08-18T20:18:57.663Z,11.07
2018-08-18T20:21:28.789Z,6.77
2018-08-18T20:23:59.617Z,7.10
2018-08-18T20:26:30.719Z,7.23
2018-08-18T20:29:01.728Z,6.87
2018-08-18T20:31:32.828Z,9.33
2018-08-18T20:34:03.811Z,6.90
2018-08-18T20:36:34.672Z,6.80
2018-08-18T20:39:08.423Z,6.50
2018-08-18T20:41:39.692Z,7.20
2018-08-18T20:44:10.709Z,6.53
2018-08-18T20:46:41.703Z,7.70
2018-08-18T20:49:12.689Z,6.87
2018-08-18T20:51:44.198Z,7.17
2018-08-18T20:54:15.692Z,6.87
2018-08-18T20:56:47.199Z,6.90
2018-08-18T20:59:18.727Z,7.67
2018-08-18T21:01:50.264Z,7.40
2018-08-18T21:04:21.699Z,7.33
2018-08-18T21:06:53.205Z,7.20
2018-08-18T21:09:32.334Z,7.27
2018-08-18T21:12:03.768Z,6.33
2018-08-18T21:14:35.409Z,7.07
2018-08-18T21:17:07.210Z,6.47
2018-08-18T21:19:38.987Z,6.17
2018-08-18T21:22:14.738Z,6.93
2018-08-18T21:24:46.191Z,6.93
2018-08-18T21:27:18.372Z,6.93
2018-08-18T21:29:49.888Z,6.77
2018-08-18T21:32:22.624Z,6.90
2018-08-18T21:34:53.984Z,6.50
2018-08-18T21:39:55.800Z,5.80
2018-08-18T21:42:27.199Z,6.17
2018-08-18T21:44:58.708Z,7.17
2018-08-18T21:47:29.976Z,5.93
2018-08-18T21:50:01.567Z,6.00
2018-08-18T21:52:32.848Z,6.17
2018-08-18T21:55:04.301Z,5.90
2018-08-18T21:57:57.209Z,6.00
2018-08-18T22:00:34.460Z,6.47
2018-08-18T22:03:05.786Z,5.83
2018-08-18T22:05:37.314Z,6.27
2018-08-18T22:08:10.610Z,6.30
2018-08-18T22:10:45.821Z,6.37
2018-08-18T22:13:17.378Z,6.13
2018-08-18T22:15:48.849Z,6.33
2018-08-18T22:18:20.309Z,5.90
2018-08-18T22:20:51.793Z,6.53
2018-08-18T22:23:23.369Z,6.23
2018-08-18T22:25:54.541Z,6.70
2018-08-18T22:28:25.989Z,6.50
2018-08-18T22:30:57.788Z,6.40
2018-08-18T22:33:32.673Z,6.30
2018-08-18T22:36:03.607Z,6.30
2018-08-18T22:38:35.214Z,6.30
2018-08-18T22:41:08.237Z,6.03
2018-08-18T22:43:39.747Z,5.73
2018-08-18T22:46:11.218Z,6.70
2018-08-18T22:48:42.741Z,5.97
2018-08-18T22:51:14.313Z,6.63
2018-08-18T22:53:49.659Z,6.17
2018-08-18T22:56:21.007Z,5.77
2018-08-18T22:59:05.202Z,6.20
2018-08-18T23:01:37.716Z,5.90
2018-08-18T23:04:45.557Z,6.20
2018-08-18T23:07:17.207Z,6.13
2018-08-18T23:09:48.695Z,6.33
2018-08-18T23:12:20.389Z,6.20
2018-08-18T23:14:51.956Z,6.13
2018-08-18T23:19:53.865Z,6.23
2018-08-18T23:22:52.870Z,6.13
2018-08-18T23:25:25.697Z,6.27
2018-08-18T23:27:57.408Z,6.20
2018-08-18T23:30:34.796Z,5.90
2018-08-18T23:33:08.812Z,5.97
2018-08-18T23:35:40.308Z,6.00
2018-08-18T23:38:11.716Z,6.13
2018-08-18T23:40:43.202Z,5.43
2018-08-18T23:43:14.697Z,5.70
2018-08-18T23:45:50.604Z,6.00
2018-08-18T23:48:22.066Z,6.10
2018-08-18T23:50:53.593Z,6.10
2018-08-18T23:53:25.225Z,5.90
2018-08-18T23:56:00.201Z,5.70
2018-08-18T23:58:32.063Z,5.80
